createdAt,value
2018-12-16T00:00:09.345Z,30.67
2018-12-16T00:02:37.551Z,28.73
2018-12-16T00:05:05.819Z,30.67
2018-12-16T00:07:34.071Z,31.13
2018-12-16T00:10:02.139Z,30.50
2018-12-16T00:12:30.228Z,32.63
2018-12-16T00:15:00.431Z,31.63
2018-12-16T00:17:32.576Z,32.97
2018-12-16T00:20:04.017Z,32.00
2018-12-16T00:22:33.053Z,33.33
2018-12-16T00:25:01.525Z,32.13
2018-12-16T00:27:29.370Z,29.73
2018-12-16T00:29:57.697Z,33.67
2018-12-16T00:32:25.729Z,31.00
2018-12-16T00:34:53.800Z,32.37
2018-12-16T00:37:21.669Z,33.47
2018-12-16T00:39:49.938Z,31.23
2018-12-16T00:42:17.804Z,31.63
2018-12-16T00:44:46.245Z,30.47
2018-12-16T00:47:14.177Z,31.70
2018-12-16T00:49:42.135Z,34.27
2018-12-16T00:52:10.466Z,30.83
2018-12-16T00:54:38.368Z,32.80
2018-12-16T00:57:06.261Z,34.40
2018-12-16T00:59:34.910Z,34.47
2018-12-16T01:02:02.979Z,35.53
2018-12-16T01:04:31.051Z,35.30
2018-12-16T01:06:59.442Z,34.27
2018-12-16T01:09:27.498Z,34.97
2018-12-16T01:11:55.370Z,38.73
2018-12-16T01:14:23.229Z,32.80
2018-12-16T01:16:51.526Z,37.13
2018-12-16T01:19:19.588Z,38.03
2018-12-16T01:21:47.645Z,36.90
2018-12-16T01:24:15.721Z,36.53
2018-12-16T01:26:44.195Z,38.77
2018-12-16T01:29:12.082Z,36.63
2018-12-16T01:31:40.130Z,35.87
2018-12-16T01:34:08.511Z,36.13
2018-12-16T01:36:37.008Z,38.00
2018-12-16T01:39:06.318Z,36.40
2018-12-16T01:41:34.280Z,38.37
2018-12-16T01:44:02.156Z,35.93
2018-12-16T01:46:30.999Z,33.07
2018-12-16T01:48:59.152Z,38.77
2018-12-16T01:51:27.252Z,36.27
2018-12-16T01:53:55.699Z,39.87
2018-12-16T01:56:23.702Z,38.83
2018-12-16T01:58:51.771Z,38.93
2018-12-16T02:01:19.652Z,40.10
2018-12-16T02:03:47.986Z,41.07
2018-12-16T02:06:15.986Z,39.33
2018-12-16T02:08:44.458Z,38.73
2018-12-16T02:11:12.563Z,40.70
2018-12-16T02:13:40.807Z,39.13
2018-12-16T02:16:09.199Z,40.37
2018-12-16T02:18:37.255Z,38.87
2018-12-16T02:21:05.139Z,40.90
2018-12-16T02:23:33.496Z,39.20
2018-12-16T02:26:01.387Z,42.30
2018-12-16T02:28:29.228Z,43.47
2018-12-16T02:30:57.502Z,40.10
2018-12-16T02:33:25.881Z,42.27
2018-12-16T02:35:53.951Z,40.43
2018-12-16T02:38:22.027Z,39.83
2018-12-16T02:40:50.536Z,42.90
2018-12-16T02:43:18.387Z,37.53
2018-12-16T02:45:46.848Z,40.57
2018-12-16T02:48:15.124Z,41.73
2018-12-16T02:50:43.403Z,39.90
2018-12-16T02:53:11.673Z,38.10
2018-12-16T02:55:39.844Z,40.90
2018-12-16T02:58:08.329Z,43.87
2018-12-16T03:00:36.838Z,41.93
2018-12-16T03:03:05.104Z,39.93
2018-12-16T03:05:33.175Z,41.00
2018-12-16T03:08:01.865Z,43.47
2018-12-16T03:10:29.960Z,39.87
2018-12-16T03:12:58.027Z,41.97
2018-12-16T03:15:26.661Z,42.30
2018-12-16T03:17:55.139Z,46.07
2018-12-16T03:20:23.112Z,46.07
2018-12-16T03:22:51.451Z,47.90
2018-12-16T03:25:19.583Z,45.47
2018-12-16T03:27:47.830Z,46.37
2018-12-16T03:30:16.311Z,49.33
2018-12-16T03:32:44.382Z,47.87
2018-12-16T03:35:12.660Z,48.03
2018-12-16T03:37:40.974Z,52.73
2018-12-16T03:40:09.319Z,46.57
2018-12-16T03:42:37.295Z,52.33
2018-12-16T03:45:06.165Z,49.53
2018-12-16T03:47:34.544Z,47.67
2018-12-16T03:50:02.512Z,48.60
2018-12-16T03:52:30.784Z,50.10
2018-12-16T03:54:58.873Z,51.37
2018-12-16T03:57:27.132Z,46.27
2018-12-16T03:59:55.333Z,47.60
2018-12-16T04:02:23.299Z,46.83
2018-12-16T04:04:52.048Z,48.77
2018-12-16T04:07:20.362Z,53.07
2018-12-16T04:09:48.404Z,49.67
2018-12-16T04:12:16.464Z,50.33
2018-12-16T04:14:44.546Z,50.30
2018-12-16T04:17:13.026Z,46.87
2018-12-16T04:19:40.890Z,48.27
2018-12-16T04:22:08.768Z,53.00
2018-12-16T04:24:37.468Z,46.17
2018-12-16T04:27:05.745Z,52.83
2018-12-16T04:29:33.670Z,49.10
2018-12-16T04:32:01.687Z,47.77
2018-12-16T04:34:29.721Z,49.03
2018-12-16T04:36:57.996Z,46.77
2018-12-16T04:39:26.851Z,51.47
2018-12-16T04:41:54.720Z,47.13
2018-12-16T04:44:22.821Z,51.20
2018-12-16T04:46:51.423Z,52.43
2018-12-16T04:49:19.701Z,48.57
2018-12-16T04:51:47.824Z,45.27
2018-12-16T04:54:16.477Z,45.90
2018-12-16T04:56:44.713Z,48.73
2018-12-16T04:59:12.647Z,41.10
2018-12-16T05:01:41.054Z,42.43
2018-12-16T05:04:08.946Z,41.90
2018-12-16T05:06:37.200Z,44.17
2018-12-16T05:09:06.710Z,42.57
2018-12-16T05:11:34.784Z,44.00
2018-12-16T05:14:02.671Z,38.67
2018-12-16T05:16:30.705Z,42.90
2018-12-16T05:18:58.911Z,40.90
2018-12-16T05:21:27.144Z,42.37
2018-12-16T05:23:55.194Z,42.17
2018-12-16T05:26:23.089Z,46.50
2018-12-16T05:28:51.193Z,43.30
2018-12-16T05:31:19.229Z,41.87
2018-12-16T05:33:47.195Z,48.73
2018-12-16T05:36:18.030Z,44.67
2018-12-16T05:38:45.999Z,44.97
2018-12-16T05:41:13.830Z,43.90
2018-12-16T05:43:42.191Z,42.10
2018-12-16T05:46:10.234Z,42.13
2018-12-16T05:48:38.107Z,45.80
2018-12-16T05:51:05.964Z,48.97
2018-12-16T05:53:34.449Z,45.50
2018-12-16T05:56:02.460Z,46.03
2018-12-16T05:58:30.379Z,45.10
2018-12-16T06:00:58.720Z,45.93
2018-12-16T06:03:26.668Z,45.07
2018-12-16T06:05:55.308Z,47.60
2018-12-16T06:08:23.375Z,47.17
2018-12-16T06:10:51.501Z,47.83
2018-12-16T06:13:19.903Z,49.13
2018-12-16T06:15:47.813Z,42.23
2018-12-16T06:18:16.078Z,44.87
2018-12-16T06:20:44.114Z,44.43
2018-12-16T06:23:12.389Z,46.47
2018-12-16T06:25:40.504Z,45.37
2018-12-16T06:28:09.169Z,44.90
2018-12-16T06:30:37.527Z,44.40
2018-12-16T06:33:05.900Z,43.77
2018-12-16T06:35:33.801Z,46.70
2018-12-16T06:38:01.761Z,45.67
2018-12-16T06:40:29.849Z,45.23
2018-12-16T06:42:58.354Z,47.23
2018-12-16T06:45:26.523Z,44.33
2018-12-16T06:47:54.503Z,49.03
2018-12-16T06:50:22.596Z,44.87
2018-12-16T06:52:50.683Z,44.37
2018-12-16T06:55:18.634Z,45.07
2018-12-16T06:57:46.704Z,46.53
2018-12-16T07:00:14.595Z,45.63
2018-12-16T07:02:42.436Z,50.50
2018-12-16T07:05:10.525Z,49.77
2018-12-16T07:07:38.379Z,47.77
2018-12-16T07:10:06.911Z,47.70
2018-12-16T07:12:35.348Z,48.60
2018-12-16T07:15:03.430Z,46.50
2018-12-16T07:17:31.321Z,47.60
2018-12-16T07:19:59.326Z,47.67
2018-12-16T07:22:27.413Z,48.23
2018-12-16T07:24:55.673Z,48.27
2018-12-16T07:27:23.565Z,53.77
2018-12-16T07:29:51.431Z,50.30
2018-12-16T07:32:19.275Z,52.73
2018-12-16T07:34:47.155Z,52.60
2018-12-16T07:37:18.943Z,54.90
2018-12-16T07:39:45.536Z,51.47
2018-12-16T07:42:14.117Z,48.93
2018-12-16T07:44:42.102Z,52.53
2018-12-16T07:47:10.362Z,47.33
2018-12-16T07:49:38.278Z,52.17
2018-12-16T07:52:06.231Z,54.20
2018-12-16T07:54:34.223Z,49.37
2018-12-16T07:57:02.681Z,54.27
2018-12-16T07:59:30.840Z,50.07
2018-12-16T08:01:58.907Z,57.67
2018-12-16T08:04:27.093Z,53.77
2018-12-16T08:06:55.100Z,55.37
2018-12-16T08:09:23.203Z,50.77
2018-12-16T08:11:51.065Z,55.07
2018-12-16T08:14:19.167Z,53.53
2018-12-16T08:16:47.207Z,52.57
2018-12-16T08:19:15.788Z,52.83
2018-12-16T08:21:44.172Z,53.33
2018-12-16T08:24:12.145Z,50.07
2018-12-16T08:26:40.207Z,53.53
2018-12-16T08:29:08.069Z,51.17
2018-12-16T08:31:36.559Z,57.00
2018-12-16T08:34:04.711Z,53.73
2018-12-16T08:36:32.701Z,64.13
2018-12-16T08:39:00.614Z,49.03
2018-12-16T08:41:28.831Z,52.73
2018-12-16T08:43:57.105Z,51.60
2018-12-16T08:46:24.975Z,47.97
2018-12-16T08:48:52.828Z,54.00
2018-12-16T08:51:20.908Z,48.83
2018-12-16T08:53:48.727Z,50.57
2018-12-16T08:56:16.554Z,52.03
2018-12-16T08:58:44.515Z,49.63
2018-12-16T09:01:12.443Z,47.73
2018-12-16T09:03:40.337Z,44.10
2018-12-16T09:06:08.371Z,45.43
2018-12-16T09:08:36.248Z,49.43
2018-12-16T09:11:04.540Z,48.33
2018-12-16T09:13:32.479Z,47.63
2018-12-16T09:16:00.381Z,43.30
2018-12-16T09:18:28.530Z,44.97
2018-12-16T09:20:56.427Z,44.70
2018-12-16T09:23:24.389Z,40.93
2018-12-16T09:25:52.631Z,40.00
2018-12-16T09:28:20.529Z,38.87
2018-12-16T09:30:48.493Z,40.90
2018-12-16T09:33:16.309Z,39.83
2018-12-16T09:35:44.637Z,39.80
2018-12-16T09:38:12.879Z,38.27
2018-12-16T09:40:40.712Z,45.23
2018-12-16T09:43:10.456Z,42.70
2018-12-16T09:45:38.693Z,43.57
2018-12-16T09:48:06.742Z,36.73
2018-12-16T09:50:35.003Z,38.93
2018-12-16T09:53:08.587Z,35.50
2018-12-16T09:58:23.791Z,35.80
2018-12-16T10:00:52.067Z,35.57
2018-12-16T10:03:21.776Z,36.10
2018-12-16T10:05:50.600Z,36.53
2018-12-16T10:08:19.606Z,37.57
2018-12-16T10:10:47.761Z,38.53
2018-12-16T10:13:15.587Z,34.23
2018-12-16T10:15:46.402Z,35.40
2018-12-16T10:18:14.296Z,36.50
2018-12-16T10:20:43.729Z,37.67
2018-12-16T10:23:11.616Z,35.53
2018-12-16T10:25:39.441Z,35.30
2018-12-16T10:28:07.331Z,35.50
2018-12-16T10:30:37.079Z,36.60
2018-12-16T10:33:06.031Z,34.57
2018-12-16T10:35:35.437Z,36.53
2018-12-16T10:38:03.339Z,36.30
2018-12-16T10:40:32.694Z,34.43
2018-12-16T10:43:02.259Z,37.33
2018-12-16T10:45:30.128Z,37.83
2018-12-16T10:47:58.449Z,35.73
2018-12-16T10:50:26.839Z,36.73
2018-12-16T10:52:55.471Z,36.23
2018-12-16T10:55:23.308Z,33.37
2018-12-16T10:57:51.231Z,35.03
2018-12-16T11:00:24.628Z,34.83
2018-12-16T11:02:52.465Z,33.63
2018-12-16T11:05:20.944Z,33.90
2018-12-16T11:07:49.021Z,32.40
2018-12-16T11:10:17.087Z,34.87
2018-12-16T11:12:46.168Z,34.00
2018-12-16T11:15:14.048Z,34.17
2018-12-16T11:17:42.117Z,34.63
2018-12-16T11:20:10.376Z,35.53
2018-12-16T11:22:38.382Z,33.03
2018-12-16T11:25:08.376Z,35.57
2018-12-16T11:27:36.623Z,35.50
2018-12-16T11:30:06.369Z,31.10
2018-12-16T11:32:34.217Z,33.13
2018-12-16T11:35:02.499Z,32.77
2018-12-16T11:37:30.567Z,34.37
2018-12-16T11:39:58.715Z,34.20
2018-12-16T11:42:27.486Z,31.57
2018-12-16T11:44:55.570Z,36.17
2018-12-16T11:47:23.989Z,35.23
2018-12-16T11:49:52.087Z,30.73
2018-12-16T11:52:20.086Z,28.23
2018-12-16T11:54:47.913Z,32.33
2018-12-16T11:57:15.964Z,33.10
2018-12-16T11:59:43.852Z,33.47
2018-12-16T12:02:11.700Z,31.57
2018-12-16T12:04:39.870Z,30.10
2018-12-16T12:07:07.771Z,30.03
2018-12-16T12:09:35.602Z,35.00
2018-12-16T12:12:03.912Z,34.23
2018-12-16T12:14:31.753Z,31.50
2018-12-16T12:16:59.594Z,33.83
2018-12-16T12:19:31.523Z,32.63
2018-12-16T12:22:04.372Z,33.23
2018-12-16T12:24:29.291Z,33.47
2018-12-16T12:26:57.377Z,33.43
2018-12-16T12:29:25.321Z,34.87
2018-12-16T12:31:53.169Z,32.43
2018-12-16T12:34:21.293Z,34.60
2018-12-16T12:36:49.948Z,32.43
2018-12-16T12:39:17.864Z,41.47
2018-12-16T12:41:46.170Z,32.93
2018-12-16T12:44:14.051Z,34.00
2018-12-16T12:46:41.918Z,34.17
2018-12-16T12:49:09.753Z,34.07
2018-12-16T12:51:38.878Z,33.93
2018-12-16T12:54:06.776Z,35.33
2018-12-16T12:56:34.982Z,33.53
2018-12-16T12:59:02.986Z,33.47
2018-12-16T13:01:30.867Z,33.73
2018-12-16T13:03:58.920Z,37.03
2018-12-16T13:06:26.779Z,33.17
2018-12-16T13:08:54.715Z,32.40
2018-12-16T13:11:22.541Z,34.63
2018-12-16T13:13:50.400Z,35.53
2018-12-16T13:16:18.251Z,36.97
2018-12-16T13:18:46.093Z,36.50
2018-12-16T13:21:14.071Z,36.60
2018-12-16T13:23:42.310Z,36.00
2018-12-16T13:26:10.469Z,38.30
2018-12-16T13:28:38.465Z,36.37
2018-12-16T13:31:06.552Z,38.60
2018-12-16T13:33:34.567Z,37.13
2018-12-16T13:36:02.662Z,38.60
2018-12-16T13:38:31.810Z,38.37
2018-12-16T13:40:59.718Z,35.03
2018-12-16T13:43:27.789Z,35.17
2018-12-16T13:45:55.691Z,35.43
2018-12-16T13:48:23.625Z,34.87
2018-12-16T13:50:53.128Z,39.37
2018-12-16T13:53:21.196Z,37.60
2018-12-16T13:55:49.045Z,37.47
2018-12-16T13:58:17.130Z,70.13
2018-12-16T14:00:44.973Z,37.30
2018-12-16T14:03:12.811Z,35.47
2018-12-16T14:05:46.631Z,38.03
2018-12-16T14:08:11.780Z,36.30
2018-12-16T14:10:39.623Z,39.10
2018-12-16T14:13:07.976Z,37.70
2018-12-16T14:15:35.941Z,39.50
2018-12-16T14:18:03.845Z,43.00
2018-12-16T14:20:32.897Z,39.83
2018-12-16T14:23:00.753Z,35.30
2018-12-16T14:25:28.622Z,38.67
2018-12-16T14:27:56.840Z,41.93
2018-12-16T14:30:24.737Z,43.93
2018-12-16T14:32:52.594Z,40.90
2018-12-16T14:35:20.751Z,46.27
2018-12-16T14:37:49.433Z,42.80
2018-12-16T14:40:17.515Z,43.67
2018-12-16T14:42:47.844Z,43.23
2018-12-16T14:45:15.880Z,43.73
2018-12-16T14:47:44.754Z,45.23
2018-12-16T14:50:12.668Z,41.90
2018-12-16T14:52:40.810Z,42.37
2018-12-16T14:55:08.727Z,43.57
2018-12-16T14:57:36.620Z,43.73
2018-12-16T15:00:06.279Z,44.93
2018-12-16T15:02:34.198Z,40.57
2018-12-16T15:05:02.794Z,44.87
2018-12-16T15:07:30.699Z,45.33
2018-12-16T15:09:58.575Z,40.70
2018-12-16T15:12:26.747Z,40.87
2018-12-16T15:14:54.876Z,45.77
2018-12-16T15:17:22.762Z,42.33
2018-12-16T15:19:50.870Z,44.90
2018-12-16T15:22:18.746Z,44.63
2018-12-16T15:24:49.298Z,44.87
2018-12-16T15:27:18.016Z,44.87
2018-12-16T15:29:45.865Z,46.73
2018-12-16T15:32:13.995Z,46.37
2018-12-16T15:34:46.509Z,47.13
2018-12-16T15:37:14.369Z,45.73
2018-12-16T15:39:43.158Z,48.07
2018-12-16T15:42:11.452Z,50.40
2018-12-16T15:44:39.294Z,64.63
2018-12-16T15:47:08.069Z,47.20
2018-12-16T15:49:36.689Z,48.17
2018-12-16T15:52:04.654Z,44.90
2018-12-16T15:54:32.618Z,46.33
2018-12-16T15:57:01.782Z,45.13
2018-12-16T15:59:29.696Z,51.10
2018-12-16T16:01:57.586Z,45.40
2018-12-16T16:04:25.541Z,43.77
2018-12-16T16:06:53.509Z,43.80
2018-12-16T16:09:21.515Z,45.03
2018-12-16T16:11:49.655Z,45.80
2018-12-16T16:14:17.905Z,45.83
2018-12-16T16:16:46.514Z,46.10
2018-12-16T16:19:14.511Z,47.87
2018-12-16T16:21:42.535Z,50.17
2018-12-16T16:24:10.595Z,48.80
2018-12-16T16:26:38.659Z,49.73
2018-12-16T16:29:06.733Z,48.33
2018-12-16T16:31:34.902Z,45.80
2018-12-16T16:34:11.928Z,48.40
2018-12-16T16:36:59.997Z,48.00
2018-12-16T16:39:29.569Z,49.50
2018-12-16T16:41:59.102Z,44.17
2018-12-16T16:44:27.020Z,50.33
2018-12-16T16:46:55.256Z,45.73
2018-12-16T16:49:23.870Z,51.53
2018-12-16T16:51:52.528Z,45.90
2018-12-16T16:54:20.416Z,49.67
2018-12-16T16:56:48.330Z,49.10
2018-12-16T16:59:17.170Z,49.07
2018-12-16T17:01:45.131Z,69.97
2018-12-16T17:04:14.227Z,45.93
2018-12-16T17:06:42.829Z,49.97
2018-12-16T17:09:12.674Z,49.80
2018-12-16T17:11:40.593Z,49.80
2018-12-16T17:14:09.276Z,49.70
2018-12-16T17:16:37.348Z,48.90
2018-12-16T17:19:06.533Z,52.20
2018-12-16T17:21:35.429Z,51.00
2018-12-16T17:24:03.509Z,49.10
2018-12-16T17:26:31.416Z,42.43
2018-12-16T17:29:00.414Z,50.87
2018-12-16T17:31:29.805Z,48.47
2018-12-16T17:33:57.947Z,52.23
2018-12-16T17:36:26.923Z,54.00
2018-12-16T17:38:55.504Z,49.63
2018-12-16T17:41:24.733Z,51.53
2018-12-16T17:43:54.358Z,50.90
2018-12-16T17:46:24.211Z,52.23
2018-12-16T17:48:52.350Z,48.67
2018-12-16T17:51:20.473Z,53.13
2018-12-16T17:53:49.996Z,58.17
2018-12-16T17:56:19.679Z,54.43
2018-12-16T17:58:49.168Z,54.03
2018-12-16T18:01:17.190Z,52.33
2018-12-16T18:03:45.569Z,55.40
2018-12-16T18:06:13.483Z,52.90
2018-12-16T18:08:43.211Z,52.10
2018-12-16T18:11:12.565Z,52.93
2018-12-16T18:13:41.303Z,50.10
2018-12-16T18:16:12.843Z,52.57
2018-12-16T18:18:42.119Z,54.97
2018-12-16T18:23:43.811Z,53.40
2018-12-16T18:26:12.191Z,55.50
2018-12-16T18:28:40.159Z,51.37
2018-12-16T18:31:08.142Z,57.50
2018-12-16T18:33:36.042Z,50.43
2018-12-16T18:36:05.905Z,53.57
2018-12-16T18:38:33.805Z,55.23
2018-12-16T18:41:01.842Z,206.83
2018-12-16T18:43:30.321Z,53.47
2018-12-16T18:45:58.390Z,54.33
2018-12-16T18:48:26.315Z,55.53
2018-12-16T18:50:54.305Z,57.33
2018-12-16T18:53:22.398Z,57.70
2018-12-16T18:55:50.468Z,53.03
2018-12-16T18:58:18.948Z,54.73
2018-12-16T19:00:47.018Z,54.83
2018-12-16T19:03:14.890Z,53.83
2018-12-16T19:05:42.753Z,53.80
2018-12-16T19:08:10.823Z,54.00
2018-12-16T19:10:38.683Z,53.97
2018-12-16T19:13:07.164Z,51.80
2018-12-16T19:15:35.236Z,56.33
2018-12-16T19:18:03.765Z,52.50
2018-12-16T19:20:31.989Z,51.50
2018-12-16T19:22:59.973Z,53.23
2018-12-16T19:25:28.543Z,51.17
2018-12-16T19:27:57.636Z,51.90
2018-12-16T19:30:26.013Z,53.27
2018-12-16T19:32:54.419Z,53.47
2018-12-16T19:35:22.583Z,53.33
2018-12-16T19:37:51.048Z,54.73
2018-12-16T19:40:19.317Z,54.00
2018-12-16T19:42:47.192Z,53.70
2018-12-16T19:45:15.060Z,52.13
2018-12-16T19:47:49.438Z,50.13
2018-12-16T19:50:13.399Z,55.77
2018-12-16T19:52:41.513Z,63.87
2018-12-16T19:55:09.848Z,59.83
2018-12-16T19:57:37.985Z,54.37
2018-12-16T20:00:07.882Z,60.63
2018-12-16T20:02:36.555Z,62.83
2018-12-16T20:05:05.303Z,56.60
2018-12-16T20:07:33.932Z,59.53
2018-12-16T20:10:02.014Z,58.20
2018-12-16T20:12:34.755Z,58.33
2018-12-16T20:15:06.258Z,58.60
2018-12-16T20:17:34.301Z,63.33
2018-12-16T20:20:02.179Z,61.90
2018-12-16T20:22:30.239Z,59.27
2018-12-16T20:25:00.088Z,61.80
2018-12-16T20:27:28.425Z,64.50
2018-12-16T20:29:57.125Z,61.03
2018-12-16T20:32:25.499Z,60.70
2018-12-16T20:34:54.228Z,65.53
2018-12-16T20:37:26.021Z,68.43
2018-12-16T20:39:54.111Z,68.80
2018-12-16T20:42:22.381Z,70.00
2018-12-16T20:44:50.257Z,65.47
2018-12-16T20:47:19.447Z,66.87
2018-12-16T20:49:47.819Z,67.77
2018-12-16T20:52:16.007Z,68.10
2018-12-16T20:54:43.916Z,65.47
2018-12-16T20:57:18.666Z,68.20
2018-12-16T20:59:42.385Z,72.13
2018-12-16T21:02:10.424Z,65.33
2018-12-16T21:04:38.500Z,74.13
2018-12-16T21:07:06.564Z,72.27
2018-12-16T21:09:34.476Z,67.13
2018-12-16T21:12:05.027Z,71.30
2018-12-16T21:14:39.240Z,71.77
2018-12-16T21:17:15.291Z,67.93
2018-12-16T21:19:43.301Z,69.23
2018-12-16T21:22:11.572Z,72.30
2018-12-16T21:24:40.054Z,70.10
2018-12-16T21:27:08.539Z,68.47
2018-12-16T21:29:37.630Z,68.20
2018-12-16T21:32:07.413Z,71.57
2018-12-16T21:34:35.594Z,70.10
2018-12-16T21:37:03.480Z,68.70
2018-12-16T21:39:31.385Z,71.30
2018-12-16T21:42:00.234Z,71.23
2018-12-16T21:44:28.723Z,70.40
2018-12-16T21:46:56.997Z,69.93
2018-12-16T21:49:26.062Z,64.07
2018-12-16T21:51:53.957Z,68.80
2018-12-16T21:54:22.327Z,65.70
2018-12-16T21:56:50.806Z,62.53
2018-12-16T21:59:19.320Z,66.30
2018-12-16T22:01:48.106Z,62.20
2018-12-16T22:04:16.148Z,64.03
2018-12-16T22:06:44.215Z,66.07
2018-12-16T22:09:12.284Z,65.30
2018-12-16T22:11:40.174Z,63.90
2018-12-16T22:14:08.531Z,66.90
2018-12-16T22:16:36.495Z,69.67
2018-12-16T22:19:04.566Z,67.17
2018-12-16T22:21:32.432Z,64.67
2018-12-16T22:24:00.405Z,64.50
2018-12-16T22:26:28.273Z,67.10
2018-12-16T22:28:56.541Z,64.03
2018-12-16T22:31:26.153Z,68.30
2018-12-16T22:33:55.012Z,66.73
2018-12-16T22:36:22.890Z,63.87
2018-12-16T22:38:50.783Z,68.20
2018-12-16T22:41:18.736Z,67.63
2018-12-16T22:43:47.262Z,69.23
2018-12-16T22:46:15.495Z,59.13
2018-12-16T22:48:43.401Z,69.10
2018-12-16T22:51:11.840Z,63.93
2018-12-16T22:53:39.908Z,68.23
2018-12-16T22:56:07.976Z,63.83
2018-12-16T22:58:36.250Z,69.93
2018-12-16T23:01:10.675Z,64.27
2018-12-16T23:03:38.980Z,68.90
2018-12-16T23:06:07.733Z,64.03
2018-12-16T23:08:35.602Z,68.00
2018-12-16T23:11:03.672Z,72.67
2018-12-16T23:13:32.185Z,69.07
2018-12-16T23:16:00.219Z,69.20
2018-12-16T23:18:28.149Z,66.90
2018-12-16T23:20:56.367Z,66.77
2018-12-16T23:23:24.431Z,65.93
2018-12-16T23:25:52.504Z,67.23
2018-12-16T23:28:20.978Z,63.97
2018-12-16T23:30:49.286Z,66.40
2018-12-16T23:33:17.500Z,62.27
2018-12-16T23:35:45.804Z,65.00
2018-12-16T23:38:13.890Z,67.63
2018-12-16T23:40:41.911Z,62.63
2018-12-16T23:43:09.825Z,61.27
2018-12-16T23:45:37.880Z,67.53
2018-12-16T23:48:05.953Z,66.13
2018-12-16T23:50:34.045Z,69.90
2018-12-16T23:53:02.055Z,69.53
2018-12-16T23:55:29.957Z,62.40
2018-12-16T23:58:00.977Z,68.70
